Time;durP1;ratioP1;P1;durP2;ratioP2;P2;SDS_P1;SDS_P2;PMS_P1;PMS_P2;Temp;Humidity;BMP_temperature;BMP_pressure;BME280_temperature;BME280_humidity;BME280_pressure;Samples;Min_cycle;Max_cycle;Signal;HPM_P1;HPM_P2
2023/10/08 00:00:39;;;;;;;11.75;6.20;;;22.90;44.60;;;;;;348210;28;1073;-58
2023/10/08 00:00:43;;;;;;;9.65;6.13;;;22.90;44.60;;;;;;348119;28;1025;-60
2023/10/08 00:00:55;;;;;;;11.30;5.82;;;22.90;44.60;;;;;;348239;28;937;-58
2023/10/08 00:01:06;;;;;;;11.27;5.40;;;22.90;44.60;;;;;;348245;28;1102;-59
2023/10/08 00:01:17;;;;;;;12.15;5.70;;;22.90;44.70;;;;;;348235;28;1102;-58
2023/10/08 00:01:28;;;;;;;10.40;5.80;;;22.90;44.70;;;;;;348281;28;1000;-59
2023/10/08 00:01:42;;;;;;;12.40;6.40;;;22.90;44.70;;;;;;348159;28;1052;-58
2023/10/08 00:01:55;;;;;;;11.63;6.30;;;22.90;44.60;;;;;;348270;28;996;-58
2023/10/08 00:02:06;;;;;;;11.32;6.10;;;22.90;44.60;;;;;;348204;28;1039;-59
2023/10/08 00:02:22;;;;;;;11.70;6.20;;;22.90;44.60;;;;;;348268;28;1043;-59
2023/10/08 00:02:32;;;;;;;11.82;6.00;;;22.80;44.60;;;;;;348252;28;1206;-58
2023/10/08 00:02:43;;;;;;;10.47;6.00;;;22.80;44.60;;;;;;348309;28;710;-58
2023/10/08 00:02:54;;;;;;;9.43;6.05;;;22.80;44.60;;;;;;348317;28;1047;-59
2023/10/08 00:03:05;;;;;;;8.65;5.95;;;22.90;44.60;;;;;;348180;28;964;-59
2023/10/08 00:03:17;;;;;;;9.48;6.20;;;22.80;44.60;;;;;;348297;28;1115;-59
2023/10/08 00:03:29;;;;;;;10.35;6.68;;;22.80;44.60;;;;;;348139;28;1032;-58
2023/10/08 00:03:41;;;;;;;10.85;6.53;;;22.80;44.70;;;;;;348108;28;1004;-57
2023/10/08 00:03:58;;;;;;;11.50;6.30;;;22.80;44.70;;;;;;348083;28;1119;-58
2023/10/08 00:04:18;;;;;;;12.65;6.25;;;22.80;44.70;;;;;;348088;28;1126;-58
2023/10/08 00:04:29;;;;;;;11.52;6.20;;;22.90;44.70;;;;;;348052;28;1059;-58
2023/10/08 00:04:40;;;;;;;10.97;6.10;;;22.80;44.70;;;;;;348131;28;1016;-59
2023/10/08 00:04:51;;;;;;;11.18;6.32;;;22.80;44.70;;;;;;348060;28;1032;-57
2023/10/08 00:05:02;;;;;;;10.48;6.20;;;22.80;44.70;;;;;;348122;28;988;-58
2023/10/08 00:05:16;;;;;;;11.35;6.32;;;22.80;44.70;;;;;;348086;28;983;-59
2023/10/08 00:05:27;;;;;;;11.30;6.40;;;22.80;44.70;;;;;;348255;28;1023;-58
2023/10/08 00:05:39;;;;;;;10.73;6.45;;;22.80;44.70;;;;;;348189;28;1036;-59
2023/10/08 00:05:50;;;;;;;10.23;6.47;;;22.80;44.70;;;;;;348291;28;1000;-59
2023/10/08 00:06:06;;;;;;;10.27;6.22;;;22.80;44.70;;;;;;348159;28;1201;-59
2023/10/08 00:06:20;;;;;;;10.40;6.38;;;22.80;44.70;;;;;;348228;28;1114;-59
2023/10/08 00:06:30;;;;;;;10.73;6.13;;;22.80;44.70;;;;;;348166;28;1027;-58
2023/10/08 00:06:41;;;;;;;9.43;5.87;;;22.80;44.70;;;;;;348092;28;1112;-57
2023/10/08 00:06:52;;;;;;;10.82;5.68;;;22.80;44.70;;;;;;348063;28;979;-60
2023/10/08 00:07:09;;;;;;;10.20;5.85;;;22.80;44.80;;;;;;348176;28;1063;-57
2023/10/08 00:07:21;;;;;;;11.50;6.30;;;22.80;44.80;;;;;;348057;28;1004;-59
2023/10/08 00:07:31;;;;;;;13.13;6.60;;;22.80;44.80;;;;;;348081;28;1223;-59
2023/10/08 00:07:43;;;;;;;13.43;6.53;;;22.80;44.80;;;;;;348206;28;1101;-58
2023/10/08 00:07:55;;;;;;;12.85;6.63;;;22.80;44.80;;;;;;348180;28;1509;-59
2023/10/08 00:08:09;;;;;;;13.10;6.78;;;22.80;44.70;;;;;;348170;28;1118;-58
2023/10/08 00:08:19;;;;;;;12.65;6.60;;;22.80;44.70;;;;;;348264;28;1036;-58
2023/10/08 00:08:30;;;;;;;11.27;6.10;;;22.80;44.70;;;;;;348133;28;1032;-59
2023/10/08 00:08:41;;;;;;;11.60;6.07;;;22.80;44.70;;;;;;348233;28;1012;-57
2023/10/08 00:08:59;;;;;;;11.35;6.15;;;22.80;44.60;;;;;;348295;28;938;-58
2023/10/08 00:09:11;;;;;;;12.25;6.20;;;22.80;44.60;;;;;;348187;28;1027;-58
2023/10/08 00:09:21;;;;;;;12.98;6.55;;;22.80;44.70;;;;;;348253;28;972;-59
2023/10/08 00:09:36;;;;;;;12.20;6.32;;;22.80;44.70;;;;;;348287;28;1090;-59
2023/10/08 00:09:56;;;;;;;12.27;6.28;;;22.80;44.70;;;;;;348258;28;976;-59
2023/10/08 00:10:08;;;;;;;11.93;6.45;;;22.80;44.70;;;;;;348194;28;1218;-58
2023/10/08 00:10:19;;;;;;;10.23;6.20;;;22.80;44.70;;;;;;348224;28;1087;-59
2023/10/08 00:10:39;;;;;;;11.30;5.96;;;22.80;44.70;;;;;;348193;28;1959;-58
2023/10/08 00:10:51;;;;;;;10.82;6.20;;;22.80;44.60;;;;;;348226;28;933;-58
2023/10/08 00:11:10;;;;;;;12.85;6.40;;;22.80;44.70;;;;;;348280;28;1015;-59
2023/10/08 00:11:22;;;;;;;13.98;6.40;;;22.80;44.70;;;;;;348191;28;972;-58
2023/10/08 00:11:36;;;;;;;11.10;6.13;;;22.70;44.70;;;;;;348255;28;1121;-57
2023/10/08 00:11:53;;;;;;;11.55;6.00;;;22.80;44.70;;;;;;348253;28;1131;-58
2023/10/08 00:12:04;;;;;;;9.82;6.30;;;22.80;44.80;;;;;;348209;28;1052;-57
2023/10/08 00:12:16;;;;;;;8.75;6.32;;;22.70;44.80;;;;;;348221;28;1123;-59
2023/10/08 00:12:28;;;;;;;8.65;6.20;;;22.70;44.90;;;;;;348233;28;1471;-60
2023/10/08 00:12:39;;;;;;;10.35;6.10;;;22.70;44.90;;;;;;348124;28;1138;-57
2023/10/08 00:12:50;;;;;;;11.43;6.28;;;22.70;44.90;;;;;;348233;28;999;-59
2023/10/08 00:13:01;;;;;;;11.23;6.30;;;22.70;44.90;;;;;;348239;28;2077;-58
2023/10/08 00:13:15;;;;;;;10.80;6.45;;;22.70;44.90;;;;;;348269;28;1020;-57
2023/10/08 00:13:26;;;;;;;11.02;6.25;;;22.70;44.90;;;;;;348217;28;917;-57
2023/10/08 00:13:41;;;;;;;11.25;6.20;;;22.70;44.90;;;;;;348240;28;961;-57
2023/10/08 00:13:56;;;;;;;11.60;5.88;;;22.70;44.90;;;;;;348192;28;1138;-58
2023/10/08 00:14:10;;;;;;;11.65;5.78;;;22.70;44.90;;;;;;348197;28;1035;-57
2023/10/08 00:14:21;;;;;;;12.40;6.22;;;22.70;44.90;;;;;;348253;28;995;-59
2023/10/08 00:14:32;;;;;;;12.50;6.25;;;22.70;44.90;;;;;;348188;28;1004;-58
2023/10/08 00:14:49;;;;;;;13.05;6.20;;;22.70;44.90;;;;;;348265;28;1099;-58
2023/10/08 00:15:00;;;;;;;11.77;6.22;;;22.70;44.90;;;;;;348219;28;888;-59
2023/10/08 00:15:11;;;;;;;12.93;6.05;;;22.70;44.90;;;;;;348233;28;1530;-58
2023/10/08 00:15:25;;;;;;;12.40;5.93;;;22.70;44.90;;;;;;348173;28;1111;-59
2023/10/08 00:15:36;;;;;;;13.75;6.35;;;22.70;44.90;;;;;;348217;28;1982;-58
2023/10/08 00:15:53;;;;;;;12.38;6.50;;;22.70;44.90;;;;;;348184;28;1134;-59
2023/10/08 00:16:09;;;;;;;10.48;6.30;;;22.70;45.00;;;;;;348188;28;1194;-59
2023/10/08 00:16:21;;;;;;;13.27;6.43;;;22.70;44.90;;;;;;348235;28;968;-59
2023/10/08 00:16:33;;;;;;;14.65;6.43;;;22.70;45.00;;;;;;348225;28;1035;-58
2023/10/08 00:16:49;;;;;;;13.80;6.40;;;22.70;45.00;;;;;;348275;28;922;-59
2023/10/08 00:17:00;;;;;;;10.90;6.13;;;22.70;45.00;;;;;;348264;28;996;-58
2023/10/08 00:17:12;;;;;;;11.20;6.20;;;22.70;45.00;;;;;;348212;28;930;-58
2023/10/08 00:17:24;;;;;;;11.60;6.40;;;22.70;45.00;;;;;;348154;28;1971;-58
2023/10/08 00:17:34;;;;;;;11.38;6.57;;;22.70;45.10;;;;;;348122;28;1348;-57
2023/10/08 00:17:45;;;;;;;12.07;6.72;;;22.70;45.10;;;;;;348195;28;1406;-58
2023/10/08 00:17:58;;;;;;;11.50;6.53;;;22.70;45.10;;;;;;348241;28;936;-57
2023/10/08 00:18:11;;;;;;;9.93;5.97;;;22.70;45.00;;;;;;348278;28;1004;-58
2023/10/08 00:18:23;;;;;;;10.75;5.93;;;22.70;45.00;;;;;;348178;28;1015;-58
2023/10/08 00:18:34;;;;;;;12.25;6.20;;;22.70;45.00;;;;;;348213;28;1035;-58
2023/10/08 00:18:50;;;;;;;13.57;6.47;;;22.70;45.10;;;;;;348211;28;1029;-59
2023/10/08 00:19:08;;;;;;;11.73;6.43;;;22.70;45.10;;;;;;348285;28;1051;-58
2023/10/08 00:19:19;;;;;;;10.27;6.32;;;22.70;45.10;;;;;;348230;28;1027;-57
2023/10/08 00:19:36;;;;;;;10.10;6.30;;;22.70;45.10;;;;;;348197;28;1027;-59
2023/10/08 00:19:52;;;;;;;10.00;6.50;;;22.70;45.10;;;;;;348248;28;901;-59
2023/10/08 00:20:03;;;;;;;11.60;6.90;;;22.70;45.10;;;;;;348249;28;797;-58
2023/10/08 00:20:25;;;;;;;12.98;6.45;;;22.70;45.10;;;;;;348187;28;915;-58
2023/10/08 00:20:46;;;;;;;12.25;6.30;;;22.70;45.10;;;;;;348177;28;1186;-58
2023/10/08 00:21:27;;;;;;;15.88;6.90;;;22.70;45.20;;;;;;348269;28;809;-58
2023/10/08 00:21:39;;;;;;;16.45;7.35;;;22.70;45.20;;;;;;348163;28;1540;-58
2023/10/08 00:21:53;;;;;;;11.30;6.95;;;22.70;45.20;;;;;;348310;28;1126;-57
2023/10/08 00:22:06;;;;;;;10.55;6.70;;;22.70;45.20;;;;;;348290;28;873;-58
2023/10/08 00:22:18;;;;;;;11.02;6.88;;;22.70;45.30;;;;;;348094;28;1666;-58
2023/10/08 00:22:35;;;;;;;11.10;6.80;;;22.60;45.30;;;;;;348270;28;1099;-58
2023/10/08 00:22:47;;;;;;;11.85;6.50;;;22.70;45.30;;;;;;348282;28;862;-57
2023/10/08 00:22:58;;;;;;;12.55;6.50;;;22.70;45.30;;;;;;348196;28;902;-57
2023/10/08 00:23:09;;;;;;;11.05;6.40;;;22.60;45.40;;;;;;348236;28;1063;-58
2023/10/08 00:23:26;;;;;;;11.80;6.43;;;22.70;45.40;;;;;;348238;28;968;-58
2023/10/08 00:23:49;;;;;;;13.48;6.70;;;22.60;45.40;;;;;;348132;28;1005;-57
2023/10/08 00:24:00;;;;;;;12.90;6.57;;;22.60;45.40;;;;;;348211;28;908;-57
2023/10/08 00:24:12;;;;;;;11.95;6.47;;;22.60;45.40;;;;;;348154;28;1087;-59
2023/10/08 00:24:26;;;;;;;13.05;6.30;;;22.60;45.40;;;;;;348298;28;920;-58
2023/10/08 00:24:40;;;;;;;12.63;6.22;;;22.60;45.40;;;;;;348174;28;1114;-58
2023/10/08 00:24:57;;;;;;;12.65;6.18;;;22.60;45.50;;;;;;348163;28;951;-58
2023/10/08 00:25:11;;;;;;;11.90;6.32;;;22.60;45.50;;;;;;348202;28;1071;-58
2023/10/08 00:25:24;;;;;;;11.98;6.40;;;22.60;45.50;;;;;;348122;28;1178;-58
2023/10/08 00:25:40;;;;;;;11.57;6.28;;;22.60;45.50;;;;;;348307;28;762;-59
2023/10/08 00:25:51;;;;;;;10.68;6.07;;;22.60;45.50;;;;;;348253;28;956;-59
2023/10/08 00:26:04;;;;;;;11.02;6.20;;;22.60;45.50;;;;;;348242;28;1023;-59
2023/10/08 00:26:18;;;;;;;11.48;6.22;;;22.60;45.50;;;;;;348250;28;1143;-59
2023/10/08 00:26:30;;;;;;;11.35;6.28;;;22.60;45.50;;;;;;348296;28;956;-60
2023/10/08 00:26:41;;;;;;;11.00;6.32;;;22.60;45.50;;;;;;348213;28;881;-58
2023/10/08 00:26:54;;;;;;;10.90;6.50;;;22.60;45.50;;;;;;348232;28;971;-58
2023/10/08 00:27:06;;;;;;;11.85;6.63;;;22.60;45.50;;;;;;348248;28;1036;-57
2023/10/08 00:27:17;;;;;;;12.15;6.45;;;22.60;45.50;;;;;;348154;28;1990;-58
2023/10/08 00:27:38;;;;;;;12.40;6.40;;;22.60;45.50;;;;;;348224;28;794;-58
2023/10/08 00:27:51;;;;;;;13.38;6.70;;;22.60;45.50;;;;;;348148;28;1850;-57
2023/10/08 00:28:01;;;;;;;10.82;6.63;;;22.60;45.50;;;;;;348222;28;992;-59
2023/10/08 00:28:17;;;;;;;10.37;6.80;;;22.60;45.50;;;;;;348216;28;1008;-58
2023/10/08 00:28:28;;;;;;;11.35;6.97;;;22.60;45.50;;;;;;348192;28;1019;-57
2023/10/08 00:28:42;;;;;;;13.80;7.07;;;22.60;45.50;;;;;;348199;28;1443;-59
2023/10/08 00:28:55;;;;;;;13.77;7.18;;;22.60;45.50;;;;;;348210;28;1058;-57
2023/10/08 00:29:21;;;;;;;11.98;6.70;;;22.60;45.50;;;;;;348250;28;1205;-58
2023/10/08 00:29:32;;;;;;;12.23;6.57;;;22.60;45.50;;;;;;348289;28;840;-57
2023/10/08 00:29:43;;;;;;;11.57;6.72;;;22.60;45.60;;;;;;348188;28;1347;-59
2023/10/08 00:29:54;;;;;;;11.00;6.85;;;22.60;45.60;;;;;;348314;28;1098;-59
2023/10/08 00:30:17;;;;;;;12.50;7.30;;;22.70;45.60;;;;;;348122;28;1046;-59
2023/10/08 00:30:31;;;;;;;15.25;7.10;;;22.60;45.60;;;;;;348226;28;1094;-59
2023/10/08 00:30:42;;;;;;;15.27;6.93;;;22.60;45.70;;;;;;348206;28;903;-59
2023/10/08 00:30:55;;;;;;;13.82;7.07;;;22.60;45.70;;;;;;348262;28;714;-58
2023/10/08 00:31:11;;;;;;;10.95;6.97;;;22.60;45.60;;;;;;348149;28;1137;-58
2023/10/08 00:31:30;;;;;;;13.23;7.10;;;22.60;45.60;;;;;;348215;28;1114;-58
2023/10/08 00:31:41;;;;;;;12.73;7.22;;;22.60;45.60;;;;;;348210;28;880;-59
2023/10/08 00:31:56;;;;;;;11.65;7.03;;;22.60;45.60;;;;;;348181;28;1097;-59
2023/10/08 00:32:17;;;;;;;12.07;7.45;;;22.60;45.60;;;;;;348280;28;1035;-59
2023/10/08 00:32:27;;;;;;;13.60;7.45;;;22.60;45.60;;;;;;348173;28;1151;-59
2023/10/08 00:32:38;;;;;;;13.85;7.50;;;22.60;45.70;;;;;;348223;28;1082;-58
2023/10/08 00:32:49;;;;;;;13.18;7.60;;;22.60;45.70;;;;;;348158;28;1106;-58
2023/10/08 00:33:00;;;;;;;14.23;7.82;;;22.60;45.80;;;;;;348282;28;895;-58
2023/10/08 00:33:11;;;;;;;13.20;7.63;;;22.60;45.80;;;;;;348250;28;843;-58
2023/10/08 00:33:22;;;;;;;13.20;7.70;;;22.60;45.80;;;;;;348057;28;1449;-58
2023/10/08 00:33:33;;;;;;;12.75;7.68;;;22.60;45.80;;;;;;348213;28;991;-59
2023/10/08 00:33:44;;;;;;;14.23;7.93;;;22.60;45.80;;;;;;348207;28;1715;-59
2023/10/08 00:33:56;;;;;;;15.35;8.15;;;22.60;45.80;;;;;;348205;28;1098;-58
2023/10/08 00:34:13;;;;;;;14.65;7.85;;;22.60;45.80;;;;;;348259;28;984;-57
2023/10/08 00:34:24;;;;;;;14.38;7.53;;;22.60;45.80;;;;;;348287;28;1203;-58
2023/10/08 00:34:41;;;;;;;14.73;7.63;;;22.60;45.80;;;;;;348130;28;1054;-58
2023/10/08 00:34:52;;;;;;;14.10;7.28;;;22.60;45.80;;;;;;348201;28;1102;-58
2023/10/08 00:35:05;;;;;;;14.57;7.15;;;22.60;45.80;;;;;;348304;28;1070;-58
2023/10/08 00:35:20;;;;;;;15.13;7.53;;;22.60;45.80;;;;;;348182;28;992;-57
2023/10/08 00:35:31;;;;;;;14.93;7.63;;;22.60;45.80;;;;;;348206;28;1031;-58
2023/10/08 00:35:42;;;;;;;13.98;7.30;;;22.60;45.80;;;;;;348248;28;925;-58
2023/10/08 00:35:53;;;;;;;12.73;7.18;;;22.60;45.80;;;;;;348183;28;1035;-58
2023/10/08 00:36:20;;;;;;;11.48;6.93;;;22.60;45.80;;;;;;348150;28;1644;-58
2023/10/08 00:36:31;;;;;;;12.10;7.07;;;22.60;45.80;;;;;;348187;28;1070;-57
2023/10/08 00:36:45;;;;;;;11.30;6.70;;;22.60;45.80;;;;;;348258;28;1016;-57
2023/10/08 00:36:57;;;;;;;12.63;6.68;;;22.60;45.80;;;;;;348267;28;1082;-57
2023/10/08 00:37:14;;;;;;;12.73;6.70;;;22.60;45.80;;;;;;348184;28;1132;-57
2023/10/08 00:37:26;;;;;;;11.43;6.63;;;22.60;45.90;;;;;;348212;28;1980;-57
2023/10/08 00:37:37;;;;;;;10.55;6.68;;;22.60;45.90;;;;;;348255;28;1065;-57
2023/10/08 00:37:48;;;;;;;12.73;6.82;;;22.60;45.90;;;;;;348215;28;1079;-58
2023/10/08 00:38:00;;;;;;;14.30;7.10;;;22.60;45.90;;;;;;348231;28;1015;-59
2023/10/08 00:38:20;;;;;;;16.20;7.20;;;22.60;45.90;;;;;;348269;28;1062;-59
2023/10/08 00:38:32;;;;;;;12.35;6.70;;;22.60;45.90;;;;;;348241;28;872;-58
2023/10/08 00:38:51;;;;;;;10.68;6.50;;;22.60;46.00;;;;;;348247;28;976;-56
2023/10/08 00:39:08;;;;;;;13.07;6.40;;;22.60;45.90;;;;;;348154;28;1118;-58
2023/10/08 00:39:24;;;;;;;14.50;7.10;;;22.60;46.00;;;;;;348210;28;1189;-59
2023/10/08 00:39:37;;;;;;;13.63;7.40;;;22.60;45.90;;;;;;348205;28;1074;-58
2023/10/08 00:39:49;;;;;;;14.13;6.97;;;22.60;46.00;;;;;;348258;28;1043;-59
2023/10/08 00:40:04;;;;;;;13.57;6.63;;;22.60;46.00;;;;;;348209;28;960;-60
2023/10/08 00:40:21;;;;;;;11.52;6.60;;;22.60;46.00;;;;;;348301;28;963;-59
2023/10/08 00:40:40;;;;;;;11.73;6.75;;;22.60;46.00;;;;;;348157;28;1426;-59
2023/10/08 00:40:50;;;;;;;10.40;6.60;;;22.60;46.00;;;;;;348138;28;1027;-58
2023/10/08 00:41:01;;;;;;;10.13;6.82;;;22.60;46.00;;;;;;348153;28;1622;-58
2023/10/08 00:41:15;;;;;;;12.18;7.15;;;22.60;46.00;;;;;;348257;28;687;-58
2023/10/08 00:41:30;;;;;;;13.65;7.15;;;22.60;46.00;;;;;;348153;28;1118;-59
2023/10/08 00:41:43;;;;;;;12.20;7.10;;;22.60;46.00;;;;;;348162;28;873;-58
2023/10/08 00:41:58;;;;;;;12.65;7.32;;;22.60;46.00;;;;;;348195;28;904;-58
2023/10/08 00:42:09;;;;;;;12.98;7.40;;;22.60;46.00;;;;;;348263;28;924;-58
2023/10/08 00:42:20;;;;;;;10.55;7.25;;;22.60;46.00;;;;;;348137;28;1119;-58
2023/10/08 00:42:30;;;;;;;9.77;7.25;;;22.60;45.90;;;;;;348228;28;934;-58
2023/10/08 00:42:45;;;;;;;11.48;7.38;;;22.60;45.90;;;;;;348199;28;1162;-58
2023/10/08 00:42:56;;;;;;;12.68;7.22;;;22.60;45.90;;;;;;348162;28;964;-58
2023/10/08 00:43:10;;;;;;;12.95;7.18;;;22.60;46.00;;;;;;348263;28;1043;-58
2023/10/08 00:43:34;;;;;;;13.43;7.20;;;22.60;46.00;;;;;;348188;28;1051;-57
2023/10/08 00:43:45;;;;;;;11.93;6.95;;;22.60;46.00;;;;;;348160;28;975;-59
2023/10/08 00:43:59;;;;;;;11.02;7.13;;;22.60;45.90;;;;;;348151;28;1729;-58
2023/10/08 00:44:16;;;;;;;12.90;7.30;;;22.60;45.80;;;;;;348236;28;1011;-59
2023/10/08 00:44:29;;;;;;;11.30;7.00;;;22.60;45.80;;;;;;348250;28;936;-59
2023/10/08 00:44:51;;;;;;;11.57;7.00;;;22.60;45.80;;;;;;348205;28;987;-59
2023/10/08 00:45:04;;;;;;;12.60;6.90;;;22.60;45.80;;;;;;348262;28;1130;-59
2023/10/08 00:45:16;;;;;;;11.02;6.82;;;22.60;45.80;;;;;;348142;28;1514;-58
2023/10/08 00:45:30;;;;;;;12.48;7.10;;;22.60;45.80;;;;;;348185;28;927;-59
2023/10/08 00:45:43;;;;;;;13.18;7.28;;;22.60;45.80;;;;;;348228;28;940;-58
2023/10/08 00:45:54;;;;;;;12.68;7.03;;;22.60;45.80;;;;;;348116;28;1122;-57
2023/10/08 00:46:39;;;;;;;12.05;6.90;;;22.60;45.80;;;;;;348095;28;1090;-59
2023/10/08 00:46:50;;;;;;;11.15;6.88;;;22.60;45.80;;;;;;348268;28;1114;-58
2023/10/08 00:47:04;;;;;;;11.27;6.97;;;22.60;45.90;;;;;;348204;28;1070;-58
2023/10/08 00:47:21;;;;;;;12.68;7.32;;;22.60;45.90;;;;;;348193;28;987;-57
2023/10/08 00:47:37;;;;;;;11.73;7.15;;;22.60;45.90;;;;;;348164;28;1361;-57
2023/10/08 00:47:48;;;;;;;11.35;7.10;;;22.60;46.00;;;;;;348273;28;1012;-59
2023/10/08 00:48:00;;;;;;;10.52;7.25;;;22.60;46.00;;;;;;348261;28;836;-58
2023/10/08 00:48:16;;;;;;;11.52;7.45;;;22.60;46.00;;;;;;348155;28;1051;-58
2023/10/08 00:48:28;;;;;;;14.90;7.05;;;22.60;46.00;;;;;;348281;28;840;-58
2023/10/08 00:48:43;;;;;;;15.05;6.93;;;22.60;46.00;;;;;;348117;28;1142;-58
2023/10/08 00:48:55;;;;;;;14.43;7.45;;;22.60;46.00;;;;;;348204;28;1315;-58
2023/10/08 00:50:10;;;;;;;12.77;7.03;;;22.60;46.10;;;;;;345273;28;1032;-58
2023/10/08 00:50:21;;;;;;;11.88;6.60;;;22.60;46.10;;;;;;345323;28;846;-58
2023/10/08 00:50:42;;;;;;;12.85;6.80;;;22.60;46.10;;;;;;346351;28;1208;-57
2023/10/08 00:50:55;;;;;;;12.23;6.75;;;22.50;46.10;;;;;;348234;28;849;-59
2023/10/08 00:51:40;;;;;;;14.57;7.38;;;22.60;46.10;;;;;;345144;28;1632;-58
2023/10/08 00:51:59;;;;;;;10.93;6.60;;;22.50;46.10;;;;;;348183;28;1097;-58
2023/10/08 00:52:26;;;;;;;13.88;7.60;;;22.60;46.10;;;;;;348047;28;1486;-58
2023/10/08 00:52:41;;;;;;;18.42;10.68;;;22.60;46.10;;;;;;348193;28;1102;-61
2023/10/08 00:53:00;;;;;;;22.58;17.17;;;22.50;46.20;;;;;;348111;28;1322;-58
2023/10/08 00:53:21;;;;;;;27.02;22.70;;;22.50;46.20;;;;;;348248;28;825;-58
2023/10/08 00:53:38;;;;;;;26.65;20.65;;;22.50;46.20;;;;;;348235;28;1030;-59
2023/10/08 00:53:58;;;;;;;19.10;12.32;;;22.60;46.20;;;;;;348184;28;1181;-57
2023/10/08 00:54:11;;;;;;;14.20;8.63;;;22.50;46.20;;;;;;348119;28;1042;-58
2023/10/08 00:54:24;;;;;;;12.55;7.60;;;22.50;46.20;;;;;;348272;28;1465;-57
2023/10/08 00:54:53;;;;;;;10.48;7.18;;;22.50;46.20;;;;;;348237;28;936;-59
2023/10/08 00:55:28;;;;;;;12.80;7.25;;;22.50;46.20;;;;;;348269;28;1023;-58
2023/10/08 00:55:39;;;;;;;13.45;7.03;;;22.50;46.30;;;;;;348191;28;1051;-58
2023/10/08 00:55:53;;;;;;;11.93;6.82;;;22.50;46.20;;;;;;348221;28;1858;-57
2023/10/08 00:56:11;;;;;;;11.63;6.82;;;22.50;46.20;;;;;;348145;28;1046;-57
2023/10/08 00:56:25;;;;;;;11.15;6.78;;;22.50;46.30;;;;;;348210;28;1058;-58
2023/10/08 00:56:57;;;;;;;11.23;6.68;;;22.50;46.30;;;;;;348248;28;1094;-59
2023/10/08 00:57:10;;;;;;;11.90;7.00;;;22.50;46.20;;;;;;348237;28;1189;-57
2023/10/08 00:57:25;;;;;;;13.45;7.10;;;22.50;46.30;;;;;;348123;28;1971;-59
2023/10/08 00:57:38;;;;;;;12.77;6.88;;;22.50;46.30;;;;;;348181;28;1078;-59
2023/10/08 00:57:57;;;;;;;11.77;6.78;;;22.50;46.20;;;;;;348255;28;1047;-57
2023/10/08 00:58:09;;;;;;;10.77;6.65;;;22.50;46.30;;;;;;348214;28;808;-57
2023/10/08 00:58:27;;;;;;;11.05;6.35;;;22.50;46.30;;;;;;348177;28;1086;-58
2023/10/08 00:58:37;;;;;;;12.32;6.10;;;22.50;46.30;;;;;;348185;28;1024;-57
2023/10/08 00:58:53;;;;;;;13.65;6.50;;;22.50;46.30;;;;;;348280;28;1090;-58
2023/10/08 00:59:06;;;;;;;13.82;6.65;;;22.50;46.30;;;;;;348285;28;1114;-58
2023/10/08 00:59:20;;;;;;;12.30;6.50;;;22.50;46.30;;;;;;348238;28;831;-59
2023/10/08 00:59:36;;;;;;;11.52;6.53;;;22.50;46.30;;;;;;348176;28;1294;-58
2023/10/08 01:00:17;;;;;;;12.25;6.65;;;22.50;46.30;;;;;;348248;28;885;-58
2023/10/08 01:00:21;;;;;;;9.82;6.00;;;22.40;46.40;;;;;;347727;28;1420;-58
2023/10/08 01:00:37;;;;;;;10.23;6.10;;;22.50;46.40;;;;;;348175;28;864;-57
2023/10/08 01:00:51;;;;;;;10.18;6.57;;;22.50;46.50;;;;;;348201;28;1090;-58
2023/10/08 01:01:03;;;;;;;9.98;6.57;;;22.50;46.50;;;;;;348244;28;1191;-58
2023/10/08 01:01:16;;;;;;;9.95;6.38;;;22.50;46.50;;;;;;348093;28;1075;-57
2023/10/08 01:01:28;;;;;;;11.38;6.25;;;22.50;46.50;;;;;;348198;28;1909;-59
2023/10/08 01:01:39;;;;;;;12.15;6.55;;;22.40;46.50;;;;;;348224;28;991;-57
2023/10/08 01:01:51;;;;;;;11.88;6.60;;;22.40;46.50;;;;;;348197;28;1150;-59
2023/10/08 01:02:14;;;;;;;11.68;6.57;;;22.40;46.50;;;;;;348176;28;1839;-58
2023/10/08 01:02:27;;;;;;;13.02;6.88;;;22.40;46.60;;;;;;348208;28;1060;-59
2023/10/08 01:03:00;;;;;;;10.70;6.50;;;22.40;46.60;;;;;;348177;28;1023;-59
2023/10/08 01:03:18;;;;;;;10.73;6.60;;;22.40;46.60;;;;;;348114;28;1652;-58
2023/10/08 01:03:29;;;;;;;10.85;6.50;;;22.40;46.60;;;;;;348263;28;905;-57
2023/10/08 01:03:44;;;;;;;10.80;6.23;;;22.40;46.60;;;;;;348084;28;899;-58
2023/10/08 01:03:55;;;;;;;13.15;6.55;;;22.40;46.60;;;;;;348268;28;1043;-57
2023/10/08 01:04:11;;;;;;;13.05;6.72;;;22.40;46.60;;;;;;348266;28;996;-58
2023/10/08 01:04:23;;;;;;;10.65;6.30;;;22.40;46.60;;;;;;348100;28;980;-60
2023/10/08 01:04:34;;;;;;;10.50;6.20;;;22.30;46.60;;;;;;348248;28;979;-58
2023/10/08 01:04:45;;;;;;;9.48;6.15;;;22.30;46.60;;;;;;348231;28;853;-59
2023/10/08 01:04:56;;;;;;;10.45;6.18;;;22.40;46.70;;;;;;348140;28;1052;-57
2023/10/08 01:05:09;;;;;;;10.07;5.90;;;22.30;46.60;;;;;;348211;28;1012;-59
2023/10/08 01:05:36;;;;;;;10.52;6.25;;;22.30;46.70;;;;;;348217;28;1005;-58
2023/10/08 01:05:47;;;;;;;11.40;6.35;;;22.30;46.50;;;;;;348158;28;1032;-58
2023/10/08 01:05:58;;;;;;;10.85;6.15;;;22.30;46.50;;;;;;348179;28;1069;-58
2023/10/08 01:06:10;;;;;;;9.23;5.83;;;22.30;46.60;;;;;;348108;28;1549;-59
2023/10/08 01:06:23;;;;;;;10.52;5.95;;;22.30;46.60;;;;;;348217;28;1031;-58
2023/10/08 01:06:34;;;;;;;12.43;6.28;;;22.30;46.50;;;;;;348251;28;1051;-57
2023/10/08 01:06:49;;;;;;;12.98;6.50;;;22.30;46.40;;;;;;348224;28;1293;-59
2023/10/08 01:07:12;;;;;;;13.05;6.53;;;22.30;46.50;;;;;;348211;28;995;-58
2023/10/08 01:07:25;;;;;;;11.38;6.28;;;22.30;46.50;;;;;;348075;28;1008;-59
2023/10/08 01:07:35;;;;;;;12.48;6.78;;;22.30;46.50;;;;;;348232;28;1032;-57
2023/10/08 01:07:51;;;;;;;13.55;7.05;;;22.20;46.50;;;;;;348279;28;976;-57
2023/10/08 01:08:06;;;;;;;11.60;6.75;;;22.20;46.50;;;;;;348122;28;1247;-58
2023/10/08 01:08:45;;;;;;;9.95;6.18;;;22.20;46.50;;;;;;348229;28;1102;-59
2023/10/08 01:08:52;;;;;;;12.93;6.05;;;22.20;46.50;;;;;;347762;28;1677;-59
2023/10/08 01:09:17;;;;;;;14.20;6.63;;;22.30;46.60;;;;;;348149;28;1093;-58
2023/10/08 01:09:37;;;;;;;10.25;6.18;;;22.20;46.60;;;;;;348211;28;1008;-57
2023/10/08 01:09:50;;;;;;;9.02;6.32;;;22.20;46.60;;;;;;348071;28;1210;-59
2023/10/08 01:10:10;;;;;;;9.05;5.88;;;22.20;46.60;;;;;;348180;28;1500;-58
2023/10/08 01:10:20;;;;;;;12.23;6.00;;;22.20;46.60;;;;;;348191;28;1078;-61
2023/10/08 01:10:31;;;;;;;12.60;6.18;;;22.20;46.70;;;;;;348165;28;1004;-58
2023/10/08 01:10:47;;;;;;;10.70;6.03;;;22.20;46.70;;;;;;348188;28;1035;-57
2023/10/08 01:11:00;;;;;;;9.13;6.07;;;22.20;46.70;;;;;;348202;28;1016;-59
2023/10/08 01:11:46;;;;;;;9.82;6.55;;;22.20;46.70;;;;;;348272;28;871;-58
2023/10/08 01:12:15;;;;;;;13.20;6.40;;;22.20;46.80;;;;;;348014;28;1703;-59
2023/10/08 01:12:33;;;;;;;10.52;6.38;;;22.20;46.80;;;;;;348070;28;1194;-58
2023/10/08 01:12:50;;;;;;;10.80;6.20;;;22.20;46.80;;;;;;348190;28;770;-58
2023/10/08 01:13:14;;;;;;;9.90;6.38;;;22.20;46.50;;;;;;348209;28;1207;-59
2023/10/08 01:13:26;;;;;;;10.68;6.40;;;22.20;46.50;;;;;;348274;28;1056;-59
2023/10/08 01:13:44;;;;;;;12.88;6.57;;;22.20;46.50;;;;;;348200;28;931;-58
2023/10/08 01:13:55;;;;;;;11.52;6.20;;;22.20;46.50;;;;;;348207;28;984;-58
2023/10/08 01:14:07;;;;;;;10.65;5.93;;;22.20;46.50;;;;;;348202;28;932;-57
2023/10/08 01:14:25;;;;;;;13.18;6.07;;;22.20;46.50;;;;;;348189;28;844;-58
2023/10/08 01:14:36;;;;;;;12.60;6.68;;;22.20;46.50;;;;;;348194;28;1110;-58
2023/10/08 01:14:49;;;;;;;11.75;6.85;;;22.20;46.50;;;;;;348219;28;1671;-58
2023/10/08 01:15:19;;;;;;;13.30;6.45;;;22.20;46.50;;;;;;348076;28;1377;-58
2023/10/08 01:15:30;;;;;;;10.73;5.90;;;22.20;46.50;;;;;;348057;28;1142;-58
2023/10/08 01:15:44;;;;;;;11.90;6.18;;;22.10;46.50;;;;;;348231;28;1086;-58
2023/10/08 01:15:55;;;;;;;13.52;6.57;;;22.20;46.50;;;;;;348059;28;2012;-58
2023/10/08 01:16:09;;;;;;;13.25;6.45;;;22.20;46.40;;;;;;348251;28;833;-58
2023/10/08 01:16:20;;;;;;;10.45;6.40;;;22.20;46.50;;;;;;348218;28;1121;-58
2023/10/08 01:16:34;;;;;;;10.43;6.30;;;22.10;46.50;;;;;;348145;28;1028;-57
2023/10/08 01:16:47;;;;;;;11.55;6.45;;;22.20;46.50;;;;;;348183;28;1122;-58
2023/10/08 01:16:58;;;;;;;11.20;6.63;;;22.20;46.50;;;;;;348167;28;1140;-58
2023/10/08 01:17:19;;;;;;;13.43;6.60;;;22.20;46.50;;;;;;348224;28;1819;-57
2023/10/08 01:17:32;;;;;;;13.18;6.63;;;22.10;46.40;;;;;;348042;28;1906;-57
2023/10/08 01:17:51;;;;;;;12.68;6.55;;;22.20;46.40;;;;;;348208;28;837;-57
2023/10/08 01:18:05;;;;;;;12.40;6.43;;;22.10;46.30;;;;;;348225;28;857;-58
2023/10/08 01:18:34;;;;;;;9.68;6.30;;;22.20;46.30;;;;;;348132;28;1620;-57
2023/10/08 01:18:50;;;;;;;11.70;6.72;;;22.20;46.30;;;;;;348420;28;1015;-57
2023/10/08 01:19:01;;;;;;;11.20;6.65;;;22.20;46.30;;;;;;348451;28;1011;-57
2023/10/08 01:19:17;;;;;;;10.73;6.43;;;22.10;46.20;;;;;;348421;28;1138;-58
2023/10/08 01:19:28;;;;;;;9.98;6.05;;;22.10;46.20;;;;;;348441;28;1015;-58